sensor_id;sensor_type;location;lat;lon;timestamp;pressure;altitude;pressure_sealevel;temperature;humidity
63901;BME280;50538;53.482;10.294;2023-06-26T00:03:20;100964.78;;;22.63;68.51
63901;BME280;50538;53.482;10.294;2023-06-26T00:13:21;100951.63;;;22.55;68.39
63901;BME280;50538;53.482;10.294;2023-06-26T00:23:24;100948.94;;;22.43;68.92
63901;BME280;50538;53.482;10.294;2023-06-26T00:33:25;100942.00;;;22.36;69.22
63901;BME280;50538;53.482;10.294;2023-06-26T00:43:25;100938.84;;;22.27;69.84
63901;BME280;50538;53.482;10.294;2023-06-26T00:53:25;100928.38;;;22.19;70.59
63901;BME280;50538;53.482;10.294;2023-06-26T01:03:25;100918.75;;;22.11;70.98
63901;BME280;50538;53.482;10.294;2023-06-26T01:13:26;100914.56;;;22.04;69.73
63901;BME280;50538;53.482;10.294;2023-06-26T01:23:29;100905.16;;;21.95;70.31
63901;BME280;50538;53.482;10.294;2023-06-26T01:33:30;100893.00;;;21.86;70.90
63901;BME280;50538;53.482;10.294;2023-06-26T01:43:43;100890.91;;;21.76;70.75
63901;BME280;50538;53.482;10.294;2023-06-26T01:53:47;100882.91;;;21.69;71.84
63901;BME280;50538;53.482;10.294;2023-06-26T02:03:50;100871.97;;;21.64;71.97
63901;BME280;50538;53.482;10.294;2023-06-26T02:13:50;100854.22;;;21.57;72.81
63901;BME280;50538;53.482;10.294;2023-06-26T02:23:50;100851.66;;;21.50;72.39
63901;BME280;50538;53.482;10.294;2023-06-26T02:33:50;100849.69;;;21.45;72.59
63901;BME280;50538;53.482;10.294;2023-06-26T02:43:51;100845.78;;;21.41;72.40
63901;BME280;50538;53.482;10.294;2023-06-26T02:53:51;100822.78;;;21.39;73.08
63901;BME280;50538;53.482;10.294;2023-06-26T03:03:51;100830.53;;;21.35;73.98
63901;BME280;50538;53.482;10.294;2023-06-26T03:13:51;100816.91;;;21.30;74.04
63901;BME280;50538;53.482;10.294;2023-06-26T03:23:51;100811.13;;;21.27;74.63
63901;BME280;50538;53.482;10.294;2023-06-26T03:33:52;100804.09;;;21.26;73.93
63901;BME280;50538;53.482;10.294;2023-06-26T03:43:52;100798.94;;;21.24;74.84
63901;BME280;50538;53.482;10.294;2023-06-26T03:53:52;100795.28;;;21.30;74.71
63901;BME280;50538;53.482;10.294;2023-06-26T04:03:53;100787.19;;;21.42;74.99
63901;BME280;50538;53.482;10.294;2023-06-26T04:13:53;100777.75;;;21.56;74.71
63901;BME280;50538;53.482;10.294;2023-06-26T04:23:53;100770.56;;;21.73;74.31
63901;BME280;50538;53.482;10.294;2023-06-26T04:33:54;100760.78;;;21.96;74.25
63901;BME280;50538;53.482;10.294;2023-06-26T04:43:54;100754.56;;;22.24;73.02
63901;BME280;50538;53.482;10.294;2023-06-26T04:53:55;100748.06;;;22.53;71.78
63901;BME280;50538;53.482;10.294;2023-06-26T05:03:55;100738.56;;;22.84;71.69
63901;BME280;50538;53.482;10.294;2023-06-26T05:13:56;100719.19;;;23.09;69.36
63901;BME280;50538;53.482;10.294;2023-06-26T05:23:56;100710.66;;;23.39;69.75
63901;BME280;50538;53.482;10.294;2023-06-26T05:33:57;100708.44;;;23.74;68.54
63901;BME280;50538;53.482;10.294;2023-06-26T05:43:57;100697.16;;;24.09;69.21
63901;BME280;50538;53.482;10.294;2023-06-26T05:53:58;100680.94;;;24.47;67.07
63901;BME280;50538;53.482;10.294;2023-06-26T06:03:58;100676.13;;;24.91;64.93
63901;BME280;50538;53.482;10.294;2023-06-26T06:13:58;100673.09;;;25.29;62.58
63901;BME280;50538;53.482;10.294;2023-06-26T06:23:59;100673.03;;;25.71;62.17
63901;BME280;50538;53.482;10.294;2023-06-26T06:34:01;100660.88;;;26.04;59.91
63901;BME280;50538;53.482;10.294;2023-06-26T06:44:01;100659.28;;;26.34;60.54
63901;BME280;50538;53.482;10.294;2023-06-26T06:54:01;100638.31;;;26.60;60.17
63901;BME280;50538;53.482;10.294;2023-06-26T07:04:02;100617.22;;;27.06;58.06
63901;BME280;50538;53.482;10.294;2023-06-26T07:14:04;100607.75;;;27.53;55.61
63901;BME280;50538;53.482;10.294;2023-06-26T07:24:04;100598.13;;;28.05;55.90
63901;BME280;50538;53.482;10.294;2023-06-26T07:34:04;100600.47;;;28.50;53.49
63901;BME280;50538;53.482;10.294;2023-06-26T07:44:04;100587.34;;;29.05;51.67
63901;BME280;50538;53.482;10.294;2023-06-26T07:54:04;100595.69;;;29.38;51.59
63901;BME280;50538;53.482;10.294;2023-06-26T08:04:05;100590.91;;;29.67;51.53
63901;BME280;50538;53.482;10.294;2023-06-26T08:14:05;100587.91;;;30.01;51.81
63901;BME280;50538;53.482;10.294;2023-06-26T08:24:05;100569.63;;;30.75;46.46
63901;BME280;50538;53.482;10.294;2023-06-26T08:34:05;100549.31;;;30.63;48.16
63901;BME280;50538;53.482;10.294;2023-06-26T08:44:06;100543.34;;;30.88;48.54
63901;BME280;50538;53.482;10.294;2023-06-26T08:54:07;100545.84;;;31.25;46.36
63901;BME280;50538;53.482;10.294;2023-06-26T09:04:09;100550.41;;;31.16;48.72
63901;BME280;50538;53.482;10.294;2023-06-26T09:14:09;100553.78;;;31.27;46.65
63901;BME280;50538;53.482;10.294;2023-06-26T09:24:10;100574.50;;;30.92;45.45
63901;BME280;50538;53.482;10.294;2023-06-26T09:34:10;100582.84;;;31.14;45.54
63901;BME280;50538;53.482;10.294;2023-06-26T09:44:11;100591.47;;;30.80;46.89
63901;BME280;50538;53.482;10.294;2023-06-26T09:54:15;100598.97;;;30.88;46.42
63901;BME280;50538;53.482;10.294;2023-06-26T10:04:16;100626.13;;;30.11;49.11
63901;BME280;50538;53.482;10.294;2023-06-26T10:14:16;100626.28;;;29.40;49.72
63901;BME280;50538;53.482;10.294;2023-06-26T10:24:17;100656.16;;;28.20;52.20
63901;BME280;50538;53.482;10.294;2023-06-26T10:34:18;100692.56;;;27.56;54.84
63901;BME280;50538;53.482;10.294;2023-06-26T10:44:18;100802.75;;;24.16;76.95
63901;BME280;50538;53.482;10.294;2023-06-26T10:54:19;100793.72;;;22.95;79.00
63901;BME280;50538;53.482;10.294;2023-06-26T11:04:21;100787.78;;;22.81;81.05
63901;BME280;50538;53.482;10.294;2023-06-26T11:14:35;100777.19;;;22.63;81.99
63901;BME280;50538;53.482;10.294;2023-06-26T11:24:35;100786.91;;;22.92;85.68
63901;BME280;50538;53.482;10.294;2023-06-26T11:34:36;100807.44;;;23.22;88.58
63901;BME280;50538;53.482;10.294;2023-06-26T11:44:41;100813.13;;;23.42;84.48
63901;BME280;50538;53.482;10.294;2023-06-26T11:54:43;100837.88;;;23.84;82.24
63901;BME280;50538;53.482;10.294;2023-06-26T12:04:43;100843.06;;;24.07;75.29
63901;BME280;50538;53.482;10.294;2023-06-26T12:14:44;100856.66;;;24.29;73.16
63901;BME280;50538;53.482;10.294;2023-06-26T12:24:44;100840.94;;;25.12;69.90
63901;BME280;50538;53.482;10.294;2023-06-26T12:34:49;100865.69;;;24.35;63.00
63901;BME280;50538;53.482;10.294;2023-06-26T12:44:50;100861.97;;;24.68;63.32
63901;BME280;50538;53.482;10.294;2023-06-26T12:54:51;100876.38;;;24.68;63.65
63901;BME280;50538;53.482;10.294;2023-06-26T13:04:52;100870.59;;;25.51;60.30
63901;BME280;50538;53.482;10.294;2023-06-26T13:14:52;100885.84;;;25.52;54.78
63901;BME280;50538;53.482;10.294;2023-06-26T13:24:52;100880.41;;;25.57;54.07
63901;BME280;50538;53.482;10.294;2023-06-26T13:34:52;100886.78;;;25.67;52.54
63901;BME280;50538;53.482;10.294;2023-06-26T13:44:54;100879.38;;;25.26;51.29
63901;BME280;50538;53.482;10.294;2023-06-26T13:54:54;100882.00;;;25.85;51.80
63901;BME280;50538;53.482;10.294;2023-06-26T14:04:54;100885.72;;;25.74;50.77
63901;BME280;50538;53.482;10.294;2023-06-26T14:14:55;100898.91;;;25.60;49.94
63901;BME280;50538;53.482;10.294;2023-06-26T14:24:55;100897.66;;;25.35;49.89
63901;BME280;50538;53.482;10.294;2023-06-26T14:34:55;100890.84;;;25.33;47.96
63901;BME280;50538;53.482;10.294;2023-06-26T14:44:56;100923.94;;;25.25;49.37
63901;BME280;50538;53.482;10.294;2023-06-26T14:54:56;100921.78;;;25.27;48.98
63901;BME280;50538;53.482;10.294;2023-06-26T15:04:56;100913.50;;;25.12;49.14
63901;BME280;50538;53.482;10.294;2023-06-26T15:14:56;100916.91;;;24.75;48.90
63901;BME280;50538;53.482;10.294;2023-06-26T15:24:57;100924.69;;;25.47;47.62
63901;BME280;50538;53.482;10.294;2023-06-26T15:34:57;100934.19;;;25.82;43.49
63901;BME280;50538;53.482;10.294;2023-06-26T15:44:58;100927.50;;;24.77;46.89
63901;BME280;50538;53.482;10.294;2023-06-26T15:54:58;100925.75;;;24.44;47.96
63901;BME280;50538;53.482;10.294;2023-06-26T16:04:59;100952.97;;;24.49;45.83
63901;BME280;50538;53.482;10.294;2023-06-26T16:14:59;100952.19;;;23.93;44.01
63901;BME280;50538;53.482;10.294;2023-06-26T16:24:59;100969.59;;;23.47;46.08
63901;BME280;50538;53.482;10.294;2023-06-26T16:35:00;100965.69;;;23.09;47.96
63901;BME280;50538;53.482;10.294;2023-06-26T16:45:00;100969.75;;;22.95;49.49
63901;BME280;50538;53.482;10.294;2023-06-26T16:55:00;100968.44;;;22.97;50.88
63901;BME280;50538;53.482;10.294;2023-06-26T17:05:01;100977.81;;;23.06;51.83
63901;BME280;50538;53.482;10.294;2023-06-26T17:15:01;100987.31;;;23.21;50.74
63901;BME280;50538;53.482;10.294;2023-06-26T17:25:03;100997.34;;;22.80;52.38
63901;BME280;50538;53.482;10.294;2023-06-26T17:35:08;101008.47;;;24.19;50.01
63901;BME280;50538;53.482;10.294;2023-06-26T17:45:08;101009.63;;;25.32;46.84
63901;BME280;50538;53.482;10.294;2023-06-26T17:55:09;101022.69;;;24.65;49.21
63901;BME280;50538;53.482;10.294;2023-06-26T18:05:10;101035.59;;;24.96;49.08
63901;BME280;50538;53.482;10.294;2023-06-26T18:15:10;101042.59;;;23.82;52.67
63901;BME280;50538;53.482;10.294;2023-06-26T18:25:10;101048.34;;;24.74;48.92
63901;BME280;50538;53.482;10.294;2023-06-26T18:35:10;101046.94;;;25.96;44.65
63901;BME280;50538;53.482;10.294;2023-06-26T18:45:11;101062.50;;;24.76;45.39
63901;BME280;50538;53.482;10.294;2023-06-26T18:55:12;101054.00;;;23.38;48.47
63901;BME280;50538;53.482;10.294;2023-06-26T19:05:12;101066.91;;;22.21;51.19
63901;BME280;50538;53.482;10.294;2023-06-26T19:15:15;101075.19;;;21.43;55.40
63901;BME280;50538;53.482;10.294;2023-06-26T19:25:15;101083.34;;;20.88;58.69
63901;BME280;50538;53.482;10.294;2023-06-26T19:35:16;101094.53;;;20.48;60.46
63901;BME280;50538;53.482;10.294;2023-06-26T19:45:16;101106.75;;;20.01;63.15
63901;BME280;50538;53.482;10.294;2023-06-26T19:55:16;101121.72;;;19.66;65.23
63901;BME280;50538;53.482;10.294;2023-06-26T20:05:17;101131.53;;;19.47;66.27
63901;BME280;50538;53.482;10.294;2023-06-26T20:15:18;101136.97;;;19.27;67.10
63901;BME280;50538;53.482;10.294;2023-06-26T20:25:18;101138.31;;;19.05;69.40
63901;BME280;50538;53.482;10.294;2023-06-26T20:35:18;101147.03;;;18.94;68.26
63901;BME280;50538;53.482;10.294;2023-06-26T20:45:19;101144.56;;;18.72;67.95
63901;BME280;50538;53.482;10.294;2023-06-26T20:55:19;101138.19;;;18.60;68.44
63901;BME280;50538;53.482;10.294;2023-06-26T21:05:20;101153.72;;;18.45;67.58
63901;BME280;50538;53.482;10.294;2023-06-26T21:15:20;101144.63;;;18.39;67.70
63901;BME280;50538;53.482;10.294;2023-06-26T21:25:20;101167.56;;;18.35;69.72
63901;BME280;50538;53.482;10.294;2023-06-26T21:35:21;101168.34;;;18.23;74.30
63901;BME280;50538;53.482;10.294;2023-06-26T21:45:21;101164.41;;;18.18;75.73
63901;BME280;50538;53.482;10.294;2023-06-26T21:55:21;101165.41;;;18.04;75.78
63901;BME280;50538;53.482;10.294;2023-06-26T22:05:22;101165.22;;;17.93;76.46
63901;BME280;50538;53.482;10.294;2023-06-26T22:15:22;101172.84;;;17.82;76.61
63901;BME280;50538;53.482;10.294;2023-06-26T22:25:22;101173.00;;;17.68;76.43
63901;BME280;50538;53.482;10.294;2023-06-26T22:35:22;101190.28;;;17.52;77.03
63901;BME280;50538;53.482;10.294;2023-06-26T22:45:23;101177.84;;;17.38;77.48
63901;BME280;50538;53.482;10.294;2023-06-26T22:55:23;101170.69;;;17.17;77.84
63901;BME280;50538;53.482;10.294;2023-06-26T23:05:24;101163.13;;;16.99;77.67
63901;BME280;50538;53.482;10.294;2023-06-26T23:15:24;101164.09;;;16.85;77.40
63901;BME280;50538;53.482;10.294;2023-06-26T23:25:24;101170.78;;;16.68;77.43
63901;BME280;50538;53.482;10.294;2023-06-26T23:35:35;101173.56;;;16.53;78.53
63901;BME280;50538;53.482;10.294;2023-06-26T23:45:35;101176.13;;;16.40;79.94
63901;BME280;50538;53.482;10.294;2023-06-26T23:55:35;101175.66;;;16.30;79.88
